EJU161A LFBZ-LFLL
Flight info
| Callsign | EJU161A |
|---|---|
| Flight time | 1h 0m |
| Altitude | 26000 |
| Route | SOVOS G17 ORTEZ DCT TBO DCT GONUP DCT TOU DCT GAI DCT MEN DCT NINUN G53 MEZIN |
| Aircraft | A320/M-SDE3FGHIRWY/LB1 |
Departure
| Time | 2026-04-18 04:40 |
|---|---|
| Airport | Biarritz Pays Basque airport (LFBZ) |
Arrival
| Time | 2026-04-18 05:40 |
|---|---|
| Airport | Lyon Saint-Exupéry Airport (LFLL) |
| Time | Latitude | Longitude | Altitude | Speed | Heading |
|---|---|---|---|---|---|
| 2026-04-18 04:17 | 43.47129 | -1.52949 | 245 ft | 0 kts | 359° |
| 2026-04-18 04:31 | 43.47124 | -1.52949 | 245 ft | 4 kts | 360° |
| 2026-04-18 04:31 | 43.47098 | -1.52950 | 245 ft | 4 kts | 6° |
| 2026-04-18 04:32 | 43.47073 | -1.52956 | 245 ft | 4 kts | 22° |
| 2026-04-18 04:32 | 43.47055 | -1.52973 | 245 ft | 4 kts | 72° |
| 2026-04-18 04:32 | 43.47053 | -1.52983 | 245 ft | 0 kts | 89° |
| 2026-04-18 04:34 | 43.47053 | -1.52967 | 245 ft | 4 kts | 89° |
| 2026-04-18 04:34 | 43.47044 | -1.52911 | 245 ft | 8 kts | 124° |
| 2026-04-18 04:35 | 43.47003 | -1.52853 | 245 ft | 9 kts | 124° |
| 2026-04-18 04:35 | 43.46992 | -1.52740 | 245 ft | 16 kts | 89° |
| 2026-04-18 04:35 | 43.46994 | -1.52579 | 245 ft | 17 kts | 89° |
| 2026-04-18 04:35 | 43.46996 | -1.52416 | 244 ft | 18 kts | 89° |
| 2026-04-18 04:36 | 43.46997 | -1.52253 | 242 ft | 14 kts | 94° |
| 2026-04-18 04:36 | 43.46927 | -1.52176 | 239 ft | 14 kts | 179° |
| 2026-04-18 04:36 | 43.46845 | -1.52131 | 239 ft | 13 kts | 118° |
| 2026-04-18 04:36 | 43.46840 | -1.51975 | 239 ft | 18 kts | 88° |
| 2026-04-18 04:37 | 43.46843 | -1.51793 | 237 ft | 22 kts | 88° |
| 2026-04-18 04:37 | 43.46847 | -1.51557 | 236 ft | 28 kts | 89° |
| 2026-04-18 04:37 | 43.46850 | -1.51280 | 234 ft | 30 kts | 89° |
| 2026-04-18 04:37 | 43.46848 | -1.51046 | 238 ft | 10 kts | 104° |
| 2026-04-18 04:38 | 43.46846 | -1.50970 | 236 ft | 7 kts | 56° |
| 2026-04-18 04:38 | 43.46874 | -1.50960 | 237 ft | 2 kts | 340° |
| 2026-04-18 04:38 | 43.46873 | -1.50996 | 237 ft | 8 kts | 251° |
| 2026-04-18 04:38 | 43.46853 | -1.51072 | 237 ft | 8 kts | 262° |
| 2026-04-18 04:39 | 43.46852 | -1.51081 | 235 ft | 0 kts | 267° |
| 2026-04-18 04:39 | 43.46850 | -1.51289 | 234 ft | 60 kts | 269° |
| 2026-04-18 04:39 | 43.46838 | -1.52184 | 240 ft | 124 kts | 269° |
| 2026-04-18 04:39 | 43.46821 | -1.53600 | 281 ft | 168 kts | 269° |
| 2026-04-18 04:40 | 43.46789 | -1.55170 | 986 ft | 159 kts | 269° |
| 2026-04-18 04:40 | 43.46778 | -1.56699 | 1598 ft | 164 kts | 271° |
| 2026-04-18 04:40 | 43.46777 | -1.58360 | 1965 ft | 183 kts | 270° |
| 2026-04-18 04:40 | 43.46743 | -1.60117 | 2576 ft | 187 kts | 261° |
| 2026-04-18 04:41 | 43.46044 | -1.61697 | 2906 ft | 209 kts | 215° |
| 2026-04-18 04:41 | 43.44599 | -1.62204 | 3238 ft | 231 kts | 172° |
| 2026-04-18 04:41 | 43.43178 | -1.61179 | 3888 ft | 238 kts | 130° |
| 2026-04-18 04:41 | 43.42366 | -1.59193 | 4685 ft | 240 kts | 110° |
| 2026-04-18 04:42 | 43.41880 | -1.56986 | 5518 ft | 242 kts | 104° |
| 2026-04-18 04:42 | 43.41488 | -1.54723 | 6329 ft | 244 kts | 103° |
| 2026-04-18 04:42 | 43.41092 | -1.52436 | 7117 ft | 247 kts | 104° |
| 2026-04-18 04:42 | 43.40666 | -1.50132 | 7889 ft | 250 kts | 105° |
| 2026-04-18 04:43 | 43.40207 | -1.47804 | 8629 ft | 254 kts | 106° |
| 2026-04-18 04:43 | 43.39718 | -1.45448 | 9358 ft | 259 kts | 107° |
| 2026-04-18 04:43 | 43.39387 | -1.42997 | 10032 ft | 267 kts | 93° |
| 2026-04-18 04:43 | 43.39345 | -1.40327 | 10324 ft | 291 kts | 91° |
| 2026-04-18 04:44 | 43.39319 | -1.37439 | 10598 ft | 314 kts | 91° |
| 2026-04-18 04:44 | 43.39294 | -1.34328 | 10869 ft | 335 kts | 91° |
| 2026-04-18 04:44 | 43.39263 | -1.31081 | 11462 ft | 343 kts | 91° |
| 2026-04-18 04:44 | 43.39227 | -1.27773 | 12161 ft | 349 kts | 91° |
| 2026-04-18 04:45 | 43.39186 | -1.24416 | 12858 ft | 353 kts | 92° |
| 2026-04-18 04:45 | 43.39141 | -1.21070 | 13532 ft | 357 kts | 92° |
| 2026-04-18 04:45 | 43.39091 | -1.17636 | 14193 ft | 362 kts | 92° |
| 2026-04-18 04:45 | 43.39043 | -1.14160 | 14859 ft | 365 kts | 91° |
| 2026-04-18 04:46 | 43.38995 | -1.10651 | 15493 ft | 369 kts | 91° |
| 2026-04-18 04:46 | 43.38948 | -1.07103 | 16108 ft | 373 kts | 91° |
| 2026-04-18 04:46 | 43.38901 | -1.03520 | 16709 ft | 377 kts | 92° |
| 2026-04-18 04:46 | 43.38847 | -0.99899 | 17292 ft | 381 kts | 92° |
| 2026-04-18 04:47 | 43.38792 | -0.96242 | 17866 ft | 384 kts | 92° |
| 2026-04-18 04:47 | 43.38735 | -0.92550 | 18422 ft | 388 kts | 92° |
| 2026-04-18 04:47 | 43.38564 | -0.88835 | 18964 ft | 391 kts | 99° |
| 2026-04-18 04:47 | 43.38129 | -0.85125 | 19518 ft | 395 kts | 100° |
| 2026-04-18 04:48 | 43.37690 | -0.81383 | 20053 ft | 398 kts | 100° |
| 2026-04-18 04:48 | 43.37248 | -0.77611 | 20586 ft | 402 kts | 100° |
| 2026-04-18 04:48 | 43.36801 | -0.73809 | 21115 ft | 405 kts | 100° |
| 2026-04-18 04:48 | 43.36485 | -0.69941 | 21631 ft | 409 kts | 93° |
| 2026-04-18 04:49 | 43.36361 | -0.66018 | 22135 ft | 412 kts | 94° |
| 2026-04-18 04:49 | 43.36230 | -0.62070 | 22625 ft | 415 kts | 94° |
| 2026-04-18 04:49 | 43.36091 | -0.58093 | 23101 ft | 418 kts | 94° |
| 2026-04-18 04:49 | 43.35944 | -0.54087 | 23570 ft | 421 kts | 94° |
| 2026-04-18 04:50 | 43.35790 | -0.50054 | 24025 ft | 424 kts | 94° |
| 2026-04-18 04:50 | 43.35637 | -0.45999 | 24459 ft | 427 kts | 94° |
| 2026-04-18 04:50 | 43.35482 | -0.41907 | 24890 ft | 430 kts | 94° |
| 2026-04-18 04:50 | 43.35325 | -0.37801 | 25299 ft | 432 kts | 94° |
| 2026-04-18 04:51 | 43.35170 | -0.33718 | 25692 ft | 435 kts | 94° |
| 2026-04-18 04:51 | 43.35009 | -0.29560 | 26075 ft | 437 kts | 94° |
| 2026-04-18 04:51 | 43.34846 | -0.25387 | 26197 ft | 436 kts | 95° |
| 2026-04-18 04:51 | 43.34687 | -0.21306 | 26220 ft | 421 kts | 94° |
| 2026-04-18 04:52 | 43.34533 | -0.17326 | 26220 ft | 415 kts | 94° |
| 2026-04-18 04:52 | 43.34378 | -0.13372 | 26221 ft | 414 kts | 95° |
| 2026-04-18 04:52 | 43.34222 | -0.09430 | 26219 ft | 413 kts | 95° |
| 2026-04-18 04:52 | 43.34066 | -0.05493 | 26221 ft | 413 kts | 95° |
| 2026-04-18 04:53 | 43.33903 | -0.01556 | 26219 ft | 413 kts | 95° |
| 2026-04-18 04:53 | 43.33738 | 0.02383 | 26221 ft | 413 kts | 95° |
| 2026-04-18 04:53 | 43.33570 | 0.06314 | 26220 ft | 412 kts | 94° |
| 2026-04-18 04:53 | 43.33403 | 0.10243 | 26220 ft | 412 kts | 93° |
| 2026-04-18 04:54 | 43.33440 | 0.14172 | 26220 ft | 412 kts | 84° |
| 2026-04-18 04:54 | 43.33952 | 0.18033 | 26223 ft | 411 kts | 73° |
| 2026-04-18 04:54 | 43.34767 | 0.21796 | 26221 ft | 411 kts | 73° |
| 2026-04-18 04:54 | 43.35573 | 0.25571 | 26219 ft | 412 kts | 73° |
| 2026-04-18 04:55 | 43.36369 | 0.29355 | 26220 ft | 412 kts | 73° |
| 2026-04-18 04:55 | 43.37162 | 0.33140 | 26221 ft | 412 kts | 73° |
| 2026-04-18 04:55 | 43.37953 | 0.36923 | 26222 ft | 412 kts | 73° |
| 2026-04-18 04:56 | 43.39544 | 0.44482 | 26223 ft | 412 kts | 73° |
| 2026-04-18 04:56 | 43.40333 | 0.48260 | 26224 ft | 411 kts | 73° |
| 2026-04-18 04:56 | 43.41117 | 0.52042 | 26224 ft | 411 kts | 73° |
| 2026-04-18 04:56 | 43.41904 | 0.55829 | 26225 ft | 412 kts | 73° |
| 2026-04-18 04:57 | 43.42696 | 0.59612 | 26227 ft | 411 kts | 73° |
| 2026-04-18 04:57 | 43.43476 | 0.63342 | 26229 ft | 411 kts | 73° |
| 2026-04-18 04:57 | 43.44262 | 0.67119 | 26227 ft | 411 kts | 73° |
| 2026-04-18 04:57 | 43.45045 | 0.70903 | 26225 ft | 411 kts | 73° |
| 2026-04-18 04:58 | 43.45858 | 0.74669 | 26223 ft | 410 kts | 69° |
| 2026-04-18 04:58 | 43.47023 | 0.78244 | 26221 ft | 408 kts | 59° |
| 2026-04-18 04:58 | 43.48399 | 0.81659 | 26220 ft | 408 kts | 59° |
| 2026-04-18 04:58 | 43.49775 | 0.85076 | 26219 ft | 408 kts | 59° |
| 2026-04-18 04:59 | 43.51152 | 0.88482 | 26215 ft | 407 kts | 59° |
| 2026-04-18 04:59 | 43.52529 | 0.91896 | 26214 ft | 407 kts | 59° |
| 2026-04-18 04:59 | 43.53899 | 0.95310 | 26213 ft | 407 kts | 59° |
| 2026-04-18 04:59 | 43.55267 | 0.98725 | 26213 ft | 407 kts | 59° |
| 2026-04-18 05:00 | 43.56629 | 1.02141 | 26212 ft | 407 kts | 59° |
| 2026-04-18 05:00 | 43.57990 | 1.05559 | 26210 ft | 407 kts | 59° |
| 2026-04-18 05:00 | 43.59350 | 1.08976 | 26209 ft | 406 kts | 59° |
| 2026-04-18 05:00 | 43.60712 | 1.12390 | 26206 ft | 406 kts | 59° |
| 2026-04-18 05:01 | 43.62071 | 1.15797 | 26204 ft | 406 kts | 59° |
| 2026-04-18 05:01 | 43.63428 | 1.19217 | 26202 ft | 406 kts | 59° |
| 2026-04-18 05:01 | 43.64779 | 1.22632 | 26201 ft | 405 kts | 59° |
| 2026-04-18 05:01 | 43.66130 | 1.26048 | 26203 ft | 405 kts | 59° |
| 2026-04-18 05:02 | 43.67490 | 1.29466 | 26204 ft | 405 kts | 59° |
| 2026-04-18 05:02 | 43.69016 | 1.32712 | 26202 ft | 402 kts | 51° |
| 2026-04-18 05:02 | 43.70683 | 1.35814 | 26202 ft | 402 kts | 51° |
| 2026-04-18 05:02 | 43.72345 | 1.38922 | 26200 ft | 402 kts | 51° |
| 2026-04-18 05:03 | 43.74004 | 1.42032 | 26199 ft | 402 kts | 51° |
| 2026-04-18 05:03 | 43.75659 | 1.45142 | 26203 ft | 402 kts | 51° |
| 2026-04-18 05:03 | 43.77317 | 1.48256 | 26198 ft | 401 kts | 51° |
| 2026-04-18 05:03 | 43.78947 | 1.51324 | 26194 ft | 401 kts | 52° |
| 2026-04-18 05:04 | 43.80597 | 1.54434 | 26194 ft | 401 kts | 51° |
| 2026-04-18 05:04 | 43.82250 | 1.57548 | 26194 ft | 401 kts | 51° |
| 2026-04-18 05:04 | 43.83902 | 1.60654 | 26195 ft | 401 kts | 51° |
| 2026-04-18 05:04 | 43.85555 | 1.63760 | 26200 ft | 401 kts | 51° |
| 2026-04-18 05:05 | 43.87210 | 1.66873 | 26202 ft | 401 kts | 51° |
| 2026-04-18 05:05 | 43.88860 | 1.69983 | 26199 ft | 401 kts | 51° |
| 2026-04-18 05:05 | 43.90507 | 1.73101 | 26199 ft | 400 kts | 52° |
| 2026-04-18 05:05 | 43.92147 | 1.76216 | 26202 ft | 400 kts | 52° |
| 2026-04-18 05:06 | 43.93787 | 1.79335 | 26203 ft | 400 kts | 52° |
| 2026-04-18 05:06 | 43.95425 | 1.82452 | 26198 ft | 400 kts | 52° |
| 2026-04-18 05:06 | 43.97044 | 1.85589 | 26200 ft | 400 kts | 52° |
| 2026-04-18 05:06 | 43.98637 | 1.88750 | 26203 ft | 400 kts | 53° |
| 2026-04-18 05:07 | 44.00216 | 1.91929 | 26196 ft | 400 kts | 53° |
| 2026-04-18 05:07 | 44.01787 | 1.95117 | 26197 ft | 400 kts | 53° |
| 2026-04-18 05:07 | 44.03356 | 1.98305 | 26196 ft | 400 kts | 53° |
| 2026-04-18 05:07 | 44.04926 | 2.01489 | 26196 ft | 399 kts | 53° |
| 2026-04-18 05:08 | 44.06499 | 2.04666 | 26194 ft | 399 kts | 53° |
| 2026-04-18 05:08 | 44.08077 | 2.07842 | 26192 ft | 399 kts | 53° |
| 2026-04-18 05:08 | 44.09651 | 2.11017 | 26195 ft | 399 kts | 53° |
| 2026-04-18 05:08 | 44.11225 | 2.14196 | 26194 ft | 399 kts | 53° |
| 2026-04-18 05:09 | 44.12799 | 2.17377 | 26194 ft | 399 kts | 53° |
| 2026-04-18 05:09 | 44.14347 | 2.20514 | 26198 ft | 399 kts | 53° |
| 2026-04-18 05:09 | 44.15917 | 2.23698 | 26198 ft | 399 kts | 53° |
| 2026-04-18 05:09 | 44.17488 | 2.26883 | 26201 ft | 399 kts | 53° |
| 2026-04-18 05:10 | 44.19058 | 2.30072 | 26201 ft | 399 kts | 53° |
| 2026-04-18 05:10 | 44.20625 | 2.33262 | 26198 ft | 399 kts | 53° |
| 2026-04-18 05:10 | 44.22192 | 2.36452 | 26199 ft | 399 kts | 53° |
| 2026-04-18 05:10 | 44.23758 | 2.39645 | 26200 ft | 399 kts | 53° |
| 2026-04-18 05:11 | 44.25325 | 2.42845 | 26200 ft | 400 kts | 53° |
| 2026-04-18 05:11 | 44.26892 | 2.46046 | 26201 ft | 400 kts | 53° |
| 2026-04-18 05:11 | 44.28461 | 2.49246 | 26200 ft | 400 kts | 53° |
| 2026-04-18 05:11 | 44.30030 | 2.52450 | 26201 ft | 400 kts | 53° |
| 2026-04-18 05:12 | 44.31598 | 2.55659 | 26203 ft | 400 kts | 53° |
| 2026-04-18 05:12 | 44.33164 | 2.58868 | 26204 ft | 400 kts | 53° |
| 2026-04-18 05:12 | 44.34728 | 2.62083 | 26207 ft | 400 kts | 53° |
| 2026-04-18 05:12 | 44.36287 | 2.65295 | 26208 ft | 400 kts | 53° |
| 2026-04-18 05:13 | 44.37849 | 2.68511 | 26208 ft | 400 kts | 53° |
| 2026-04-18 05:13 | 44.39412 | 2.71733 | 26209 ft | 400 kts | 53° |
| 2026-04-18 05:13 | 44.40972 | 2.74953 | 26208 ft | 400 kts | 53° |
| 2026-04-18 05:13 | 44.42532 | 2.78174 | 26207 ft | 400 kts | 53° |
| 2026-04-18 05:14 | 44.44092 | 2.81393 | 26208 ft | 400 kts | 53° |
| 2026-04-18 05:14 | 44.45126 | 2.83527 | 26206 ft | 400 kts | 53° |
| 2026-04-18 05:14 | 44.46683 | 2.86748 | 26206 ft | 400 kts | 53° |
| 2026-04-18 05:14 | 44.48240 | 2.89972 | 26208 ft | 400 kts | 53° |
| 2026-04-18 05:15 | 44.49797 | 2.93196 | 26208 ft | 400 kts | 53° |
| 2026-04-18 05:15 | 44.51355 | 2.96429 | 26207 ft | 400 kts | 53° |
| 2026-04-18 05:15 | 44.52909 | 2.99659 | 26206 ft | 400 kts | 53° |
| 2026-04-18 05:15 | 44.54464 | 3.02893 | 26206 ft | 400 kts | 53° |
| 2026-04-18 05:16 | 44.56015 | 3.06131 | 26205 ft | 400 kts | 53° |
| 2026-04-18 05:16 | 44.57565 | 3.09368 | 26204 ft | 400 kts | 53° |
| 2026-04-18 05:16 | 44.59114 | 3.12605 | 26201 ft | 399 kts | 53° |
| 2026-04-18 05:16 | 44.60658 | 3.15844 | 26200 ft | 399 kts | 54° |
| 2026-04-18 05:17 | 44.62134 | 3.19142 | 26200 ft | 400 kts | 57° |
| 2026-04-18 05:17 | 44.63511 | 3.22479 | 26199 ft | 400 kts | 58° |
| 2026-04-18 05:17 | 44.64857 | 3.25900 | 26198 ft | 401 kts | 59° |
| 2026-04-18 05:17 | 44.66187 | 3.29338 | 26203 ft | 401 kts | 59° |
| 2026-04-18 05:18 | 44.67521 | 3.32775 | 26198 ft | 401 kts | 59° |
| 2026-04-18 05:18 | 44.68864 | 3.36204 | 26202 ft | 401 kts | 58° |
| 2026-04-18 05:18 | 44.70218 | 3.39626 | 26202 ft | 400 kts | 58° |
| 2026-04-18 05:18 | 44.71578 | 3.43038 | 26201 ft | 400 kts | 58° |
| 2026-04-18 05:19 | 44.72940 | 3.46448 | 26200 ft | 400 kts | 58° |
| 2026-04-18 05:19 | 44.74300 | 3.49862 | 26200 ft | 400 kts | 58° |
| 2026-04-18 05:19 | 44.75659 | 3.53279 | 26200 ft | 400 kts | 58° |
| 2026-04-18 05:19 | 44.77014 | 3.56690 | 26200 ft | 400 kts | 58° |
| 2026-04-18 05:20 | 44.78370 | 3.60109 | 26200 ft | 400 kts | 58° |
| 2026-04-18 05:20 | 44.79722 | 3.63526 | 26201 ft | 400 kts | 58° |
| 2026-04-18 05:20 | 44.81077 | 3.66949 | 26202 ft | 400 kts | 58° |
| 2026-04-18 05:20 | 44.82431 | 3.70362 | 26203 ft | 400 kts | 58° |
| 2026-04-18 05:21 | 44.83789 | 3.73786 | 26204 ft | 400 kts | 58° |
| 2026-04-18 05:21 | 44.85136 | 3.77189 | 26003 ft | 394 kts | 58° |
| 2026-04-18 05:21 | 44.86450 | 3.80526 | 25752 ft | 386 kts | 58° |
| 2026-04-18 05:21 | 44.87740 | 3.83811 | 25501 ft | 380 kts | 58° |
| 2026-04-18 05:22 | 44.89012 | 3.87056 | 25193 ft | 376 kts | 58° |
| 2026-04-18 05:22 | 44.90270 | 3.90269 | 24727 ft | 374 kts | 58° |
| 2026-04-18 05:22 | 44.91524 | 3.93474 | 24253 ft | 372 kts | 58° |
| 2026-04-18 05:22 | 44.92775 | 3.96663 | 23777 ft | 371 kts | 58° |
| 2026-04-18 05:23 | 44.94019 | 3.99844 | 23304 ft | 370 kts | 58° |
| 2026-04-18 05:23 | 44.95261 | 4.03025 | 22824 ft | 369 kts | 58° |
| 2026-04-18 05:23 | 44.96498 | 4.06197 | 22364 ft | 368 kts | 58° |
| 2026-04-18 05:23 | 44.97728 | 4.09360 | 21906 ft | 367 kts | 58° |
| 2026-04-18 05:24 | 44.98954 | 4.12511 | 21447 ft | 365 kts | 58° |
| 2026-04-18 05:24 | 45.00177 | 4.15651 | 20997 ft | 364 kts | 58° |
| 2026-04-18 05:24 | 45.01389 | 4.18779 | 20572 ft | 362 kts | 60° |
| 2026-04-18 05:24 | 45.02342 | 4.22075 | 20117 ft | 363 kts | 68° |
| 2026-04-18 05:25 | 45.03172 | 4.25437 | 19679 ft | 361 kts | 68° |
| 2026-04-18 05:25 | 45.03989 | 4.28782 | 19250 ft | 359 kts | 69° |
| 2026-04-18 05:25 | 45.04799 | 4.32113 | 18812 ft | 357 kts | 69° |
| 2026-04-18 05:25 | 45.05606 | 4.35430 | 18381 ft | 356 kts | 69° |
| 2026-04-18 05:26 | 45.06410 | 4.38724 | 17950 ft | 352 kts | 69° |
| 2026-04-18 05:26 | 45.07196 | 4.41950 | 17542 ft | 343 kts | 69° |
| 2026-04-18 05:26 | 45.07971 | 4.45131 | 17130 ft | 341 kts | 69° |
| 2026-04-18 05:26 | 45.08740 | 4.48290 | 16737 ft | 339 kts | 68° |
| 2026-04-18 05:27 | 45.09508 | 4.51440 | 16331 ft | 338 kts | 69° |
| 2026-04-18 05:27 | 45.10270 | 4.54572 | 15936 ft | 336 kts | 69° |
| 2026-04-18 05:27 | 45.11019 | 4.57657 | 15548 ft | 335 kts | 69° |
| 2026-04-18 05:27 | 45.11785 | 4.60816 | 15146 ft | 334 kts | 69° |
| 2026-04-18 05:28 | 45.12524 | 4.63873 | 14755 ft | 332 kts | 69° |
| 2026-04-18 05:28 | 45.13269 | 4.66961 | 14367 ft | 330 kts | 69° |
| 2026-04-18 05:28 | 45.14008 | 4.70034 | 13974 ft | 329 kts | 69° |
| 2026-04-18 05:28 | 45.14743 | 4.73091 | 13590 ft | 327 kts | 69° |
| 2026-04-18 05:29 | 45.15474 | 4.76135 | 13189 ft | 325 kts | 69° |
| 2026-04-18 05:29 | 45.16202 | 4.79159 | 12786 ft | 324 kts | 68° |
| 2026-04-18 05:29 | 45.17211 | 4.81973 | 12382 ft | 319 kts | 52° |
| 2026-04-18 05:29 | 45.18735 | 4.84200 | 11982 ft | 313 kts | 35° |
| 2026-04-18 05:30 | 45.20620 | 4.85681 | 11584 ft | 309 kts | 19° |
| 2026-04-18 05:30 | 45.22663 | 4.86580 | 11185 ft | 306 kts | 15° |
| 2026-04-18 05:30 | 45.24697 | 4.87446 | 10775 ft | 305 kts | 15° |
| 2026-04-18 05:30 | 45.26723 | 4.88316 | 10412 ft | 302 kts | 17° |
| 2026-04-18 05:31 | 45.28585 | 4.89543 | 10162 ft | 290 kts | 32° |
| 2026-04-18 05:31 | 45.30136 | 4.91336 | 9587 ft | 285 kts | 42° |
| 2026-04-18 05:31 | 45.31576 | 4.93243 | 9173 ft | 283 kts | 42° |
| 2026-04-18 05:31 | 45.33023 | 4.95141 | 8764 ft | 283 kts | 42° |
| 2026-04-18 05:32 | 45.34472 | 4.97027 | 8347 ft | 282 kts | 42° |
| 2026-04-18 05:32 | 45.35899 | 4.98883 | 7937 ft | 282 kts | 42° |
| 2026-04-18 05:32 | 45.37342 | 5.00761 | 7504 ft | 281 kts | 42° |
| 2026-04-18 05:32 | 45.38768 | 5.02614 | 7082 ft | 273 kts | 42° |
| 2026-04-18 05:33 | 45.40166 | 5.04433 | 6672 ft | 272 kts | 42° |
| 2026-04-18 05:33 | 45.41556 | 5.06239 | 6259 ft | 271 kts | 42° |
| 2026-04-18 05:33 | 45.42936 | 5.08035 | 5989 ft | 264 kts | 42° |
| 2026-04-18 05:33 | 45.44260 | 5.09759 | 5863 ft | 252 kts | 42° |
| 2026-04-18 05:34 | 45.45613 | 5.11228 | 5769 ft | 237 kts | 26° |
| 2026-04-18 05:34 | 45.47177 | 5.11871 | 5458 ft | 235 kts | 2° |
| 2026-04-18 05:34 | 45.48800 | 5.11736 | 5153 ft | 233 kts | 355° |
| 2026-04-18 05:34 | 45.50391 | 5.11537 | 4845 ft | 225 kts | 355° |
| 2026-04-18 05:35 | 45.51919 | 5.11350 | 4559 ft | 215 kts | 355° |
| 2026-04-18 05:35 | 45.53380 | 5.11174 | 4273 ft | 207 kts | 355° |
| 2026-04-18 05:35 | 45.54791 | 5.11003 | 4043 ft | 199 kts | 355° |
| 2026-04-18 05:35 | 45.56158 | 5.10837 | 3750 ft | 196 kts | 355° |
| 2026-04-18 05:36 | 45.57499 | 5.10675 | 3480 ft | 190 kts | 355° |
| 2026-04-18 05:36 | 45.58801 | 5.10519 | 3231 ft | 183 kts | 355° |
| 2026-04-18 05:36 | 45.60031 | 5.10370 | 2991 ft | 171 kts | 355° |
| 2026-04-18 05:36 | 45.61172 | 5.10232 | 2783 ft | 157 kts | 355° |
| 2026-04-18 05:37 | 45.62220 | 5.10105 | 2574 ft | 147 kts | 355° |
| 2026-04-18 05:37 | 45.63226 | 5.09979 | 2388 ft | 144 kts | 355° |
| 2026-04-18 05:37 | 45.64217 | 5.09861 | 2207 ft | 142 kts | 355° |
| 2026-04-18 05:37 | 45.65206 | 5.09745 | 2006 ft | 143 kts | 355° |
| 2026-04-18 05:38 | 45.66197 | 5.09620 | 1813 ft | 143 kts | 354° |
| 2026-04-18 05:38 | 45.67188 | 5.09500 | 1627 ft | 143 kts | 355° |
| 2026-04-18 05:38 | 45.68167 | 5.09381 | 1436 ft | 142 kts | 355° |
| 2026-04-18 05:38 | 45.69149 | 5.09265 | 1248 ft | 142 kts | 355° |
| 2026-04-18 05:39 | 45.70126 | 5.09144 | 1050 ft | 141 kts | 355° |
| 2026-04-18 05:39 | 45.71100 | 5.09026 | 869 ft | 140 kts | 355° |
| 2026-04-18 05:39 | 45.72001 | 5.08919 | 811 ft | 109 kts | 355° |
| 2026-04-18 05:39 | 45.72589 | 5.08849 | 792 ft | 60 kts | 355° |
| 2026-04-18 05:40 | 45.72857 | 5.08818 | 792 ft | 19 kts | 355° |
| 2026-04-18 05:40 | 45.72948 | 5.08727 | 792 ft | 18 kts | 288° |
| 2026-04-18 05:40 | 45.72946 | 5.08543 | 791 ft | 20 kts | 266° |
| 2026-04-18 05:40 | 45.72897 | 5.08367 | 790 ft | 19 kts | 206° |
| 2026-04-18 05:41 | 45.72770 | 5.08364 | 791 ft | 19 kts | 174° |
| 2026-04-18 05:41 | 45.72634 | 5.08379 | 792 ft | 20 kts | 176° |
| 2026-04-18 05:41 | 45.72502 | 5.08392 | 796 ft | 17 kts | 174° |
| 2026-04-18 05:41 | 45.72392 | 5.08410 | 797 ft | 12 kts | 174° |
| 2026-04-18 05:42 | 45.72360 | 5.08414 | 798 ft | 5 kts | 175° |
| 2026-04-18 05:42 | 45.72287 | 5.08421 | 799 ft | 15 kts | 175° |
| 2026-04-18 05:42 | 45.72187 | 5.08434 | 801 ft | 14 kts | 173° |
| 2026-04-18 05:42 | 45.72096 | 5.08445 | 803 ft | 13 kts | 176° |
| 2026-04-18 05:43 | 45.72004 | 5.08455 | 802 ft | 14 kts | 175° |
| 2026-04-18 05:43 | 45.71897 | 5.08468 | 802 ft | 17 kts | 175° |
| 2026-04-18 05:43 | 45.71765 | 5.08483 | 802 ft | 21 kts | 175° |
| 2026-04-18 05:43 | 45.71626 | 5.08502 | 802 ft | 18 kts | 175° |
| 2026-04-18 05:44 | 45.71497 | 5.08517 | 804 ft | 16 kts | 175° |
| 2026-04-18 05:44 | 45.71436 | 5.08509 | 807 ft | 6 kts | 211° |
| 2026-04-18 05:44 | 45.71417 | 5.08461 | 807 ft | 7 kts | 255° |
| 2026-04-18 05:44 | 45.71445 | 5.08409 | 803 ft | 7 kts | 352° |
| 2026-04-18 05:45 | 45.71482 | 5.08405 | 802 ft | 3 kts | 355° |
| 2026-04-18 05:45 | 45.71492 | 5.08404 | 801 ft | 0 kts | 355° |